Aviation Digital Data Service (ADDS)

Output produced by METARs form (0631 UTC 19 March 2019)
found at http://www.aviationweather.gov/metar/data/
 
METAR text: SKBO 190600Z 03010KT 9999 SCT010 SCT070 12/10 A3031
Conditions at: SKBO (BOGOTA/ELDORADO , CO) observed 0600 UTC 19 March 2019
Temperature: 12.0°C (54°F)
Dewpoint: 10.0°C (50°F) [RH = 88%]
Pressure (altimeter): 30.31 inches Hg (1026.5 mb)
Winds: from the NNE (30 degrees) at 12 MPH (10 knots; 5.1 m/s)
Visibility: 6 or more miles (10+ km)
Ceiling: at least 12,000 feet AGL
Clouds: scattered clouds at 1000 feet AGL
scattered clouds at 7000 feet AGL
Weather: no significant weather observed at this time

METAR text: SKBO 190500Z 03003KT 9999 FEW010 12/10 A3032
Conditions at: SKBO (BOGOTA/ELDORADO , CO) observed 0500 UTC 19 March 2019
Temperature: 12.0°C (54°F)
Dewpoint: 10.0°C (50°F) [RH = 88%]
Pressure (altimeter): 30.32 inches Hg (1026.8 mb)
Winds: from the NNE (30 degrees) at 3 MPH (3 knots; 1.5 m/s)
Visibility: 6 or more miles (10+ km)
Ceiling: at least 12,000 feet AGL
Clouds: few clouds at 1000 feet AGL
Weather: no significant weather observed at this time

METAR text: SKBO 190400Z 06005KT 9999 FEW015 13/11 A3033
Conditions at: SKBO (BOGOTA/ELDORADO , CO) observed 0400 UTC 19 March 2019
Temperature: 13.0°C (55°F)
Dewpoint: 11.0°C (52°F) [RH = 88%]
Pressure (altimeter): 30.33 inches Hg (1027.2 mb)
Winds: from the ENE (60 degrees) at 6 MPH (5 knots; 2.6 m/s)
Visibility: 6 or more miles (10+ km)
Ceiling: at least 12,000 feet AGL
Clouds: few clouds at 1500 feet AGL
Weather: no significant weather observed at this time

METAR text: SKBO 190300Z VRB02KT 9999 FEW015 BKN070 12/10 A3033
Conditions at: SKBO (BOGOTA/ELDORADO , CO) observed 0300 UTC 19 March 2019
Temperature: 12.0°C (54°F)
Dewpoint: 10.0°C (50°F) [RH = 88%]
Pressure (altimeter): 30.33 inches Hg (1027.2 mb)
Winds: variable direction winds at 2 MPH (2 knots; 1.0 m/s)
Visibility: 6 or more miles (10+ km)
Ceiling: 7000 feet AGL
Clouds: few clouds at 1500 feet AGL
broken clouds at 7000 feet AGL
Weather: no significant weather observed at this time

METAR text: SKBO 190200Z VRB02KT 9999 SCT015 SCT070 13/11 A3032 REDZ
Conditions at: SKBO (BOGOTA/ELDORADO , CO) observed 0200 UTC 19 March 2019
Temperature: 13.0°C (55°F)
Dewpoint: 11.0°C (52°F) [RH = 88%]
Pressure (altimeter): 30.32 inches Hg (1026.8 mb)
Winds: variable direction winds at 2 MPH (2 knots; 1.0 m/s)
Visibility: 6 or more miles (10+ km)
Ceiling: at least 12,000 feet AGL
Clouds: scattered clouds at 1500 feet AGL
scattered clouds at 7000 feet AGL
Weather: no significant weather observed at this time

METAR text: SKBO 190100Z 32004KT 8000 -DZ SCT015 SCT070 14/12 A3028 RETSRA
Conditions at: SKBO (BOGOTA/ELDORADO , CO) observed 0100 UTC 19 March 2019
Temperature: 14.0°C (57°F)
Dewpoint: 12.0°C (54°F) [RH = 88%]
Pressure (altimeter): 30.28 inches Hg (1025.5 mb)
Winds: from the NW (320 degrees) at 5 MPH (4 knots; 2.1 m/s)
Visibility: 5 miles ( 8 km)
Ceiling: at least 12,000 feet AGL
Clouds: scattered clouds at 1500 feet AGL
scattered clouds at 7000 feet AGL
Weather: -DZ  (light drizzle)

METAR text: SKBO 190000Z 33005KT 8000 -TSRA SCT015CB SCT070 13/11 A3025 RMKCB/NW
Conditions at: SKBO (BOGOTA/ELDORADO , CO) observed 0000 UTC 19 March 2019
Temperature: 13.0°C (55°F)
Dewpoint: 11.0°C (52°F) [RH = 88%]
Pressure (altimeter): 30.25 inches Hg (1024.5 mb)
Winds: from the NNW (330 degrees) at 6 MPH (5 knots; 2.6 m/s)
Visibility: 5 miles ( 8 km)
Ceiling: at least 12,000 feet AGL
Clouds: scattered clouds at 1500 feet AGL
scattered clouds at 7000 feet AGL
Weather: -TSRA  (light rain associated with thunderstorm(s))

METAR text: SKBO 182318Z 30004KT 240V020 8000 TSRA SCT015TCU SCT070 16/13 A3022 RMK CB/N
Conditions at: SKBO (BOGOTA/ELDORADO , CO) observed 2318 UTC 18 March 2019
Temperature: 16.0°C (61°F)
Dewpoint: 13.0°C (55°F) [RH = 82%]
Pressure (altimeter): 30.22 inches Hg (1023.5 mb)
Winds: from the WNW (300 degrees) at 5 MPH (4 knots; 2.1 m/s)
Visibility: 5 miles ( 8 km)
Ceiling: at least 12,000 feet AGL
Clouds: scattered clouds at 1500 feet AGL
scattered clouds at 7000 feet AGL
Weather: TSRA  (rain associated with thunderstorm(s))

METAR text: SKBO 182300Z 24005KT 8000 VCSH FEW018TCU SCT020 17/13 A3021 RMKTCU VCSH NE
Conditions at: SKBO (BOGOTA/ELDORADO , CO) observed 2300 UTC 18 March 2019
Temperature: 17.0°C (63°F)
Dewpoint: 13.0°C (55°F) [RH = 77%]
Pressure (altimeter): 30.21 inches Hg (1023.1 mb)
Winds: from the WSW (240 degrees) at 6 MPH (5 knots; 2.6 m/s)
Visibility: 5 miles ( 8 km)
Ceiling: at least 12,000 feet AGL
Clouds: few clouds at 1800 feet AGL
scattered clouds at 2000 feet AGL
Weather: VCSH  (showers in vicinity)

METAR text: SKBO 182200Z VRB02KT 8000 BKN018 18/13 A3021 REDZ RMK HZ
Conditions at: SKBO (BOGOTA/ELDORADO , CO) observed 2200 UTC 18 March 2019
Temperature: 18.0°C (64°F)
Dewpoint: 13.0°C (55°F) [RH = 73%]
Pressure (altimeter): 30.21 inches Hg (1023.1 mb)
Winds: variable direction winds at 2 MPH (2 knots; 1.0 m/s)
Visibility: 5 miles ( 8 km)
Ceiling: 1800 feet AGL
Clouds: broken clouds at 1800 feet AGL
Weather: no significant weather observed at this time

METAR text: SKBO 182100Z 28007KT 6000 -DZ FEW015CB SCT020 16/14 A3020 RMKCB NW
Conditions at: SKBO (BOGOTA/ELDORADO , CO) observed 2100 UTC 18 March 2019
Temperature: 16.0°C (61°F)
Dewpoint: 14.0°C (57°F) [RH = 88%]
Pressure (altimeter): 30.20 inches Hg (1022.8 mb)
Winds: from the W (280 degrees) at 8 MPH (7 knots; 3.6 m/s)
Visibility: 4 miles ( 6 km)
Ceiling: at least 12,000 feet AGL
Clouds: few clouds at 1500 feet AGL
scattered clouds at 2000 feet AGL
Weather: -DZ  (light drizzle)

METAR text: SKBO 182015Z 28011KT 5000 VCSH FEW015CB SCT020 18/12 A3021 RMK CB NW VCSH S/NW
Conditions at: SKBO (BOGOTA/ELDORADO , CO) observed 2015 UTC 18 March 2019
Temperature: 18.0°C (64°F)
Dewpoint: 12.0°C (54°F) [RH = 68%]
Pressure (altimeter): 30.21 inches Hg (1023.1 mb)
Winds: from the W (280 degrees) at 13 MPH (11 knots; 5.7 m/s)
Visibility: 3 miles ( 5 km)
Ceiling: at least 12,000 feet AGL
Clouds: few clouds at 1500 feet AGL
scattered clouds at 2000 feet AGL
Weather: VCSH  (showers in vicinity)

METAR text: SKBO 182000Z 24012KT 8000 VCSH FEW018CB SCT020 18/11 A3021 RMKCB NW VCSH S/NW
Conditions at: SKBO (BOGOTA/ELDORADO , CO) observed 2000 UTC 18 March 2019
Temperature: 18.0°C (64°F)
Dewpoint: 11.0°C (52°F) [RH = 64%]
Pressure (altimeter): 30.21 inches Hg (1023.1 mb)
Winds: from the WSW (240 degrees) at 14 MPH (12 knots; 6.2 m/s)
Visibility: 5 miles ( 8 km)
Ceiling: at least 12,000 feet AGL
Clouds: few clouds at 1800 feet AGL
scattered clouds at 2000 feet AGL
Weather: VCSH  (showers in vicinity)

METAR text: SKBO 181900Z 25006KT 9999 FEW020TCU SCT022 20/10 A3023 RMK TCU S
Conditions at: SKBO (BOGOTA/ELDORADO , CO) observed 1900 UTC 18 March 2019
Temperature: 20.0°C (68°F)
Dewpoint: 10.0°C (50°F) [RH = 53%]
Pressure (altimeter): 30.23 inches Hg (1023.8 mb)
Winds: from the WSW (250 degrees) at 7 MPH (6 knots; 3.1 m/s)
Visibility: 6 or more miles (10+ km)
Ceiling: at least 12,000 feet AGL
Clouds: few clouds at 2000 feet AGL
scattered clouds at 2200 feet AGL
Weather: no significant weather observed at this time

METAR text: SKBO 181800Z 13005KT 9999 BKN020 20/08 A3027
Conditions at: SKBO (BOGOTA/ELDORADO , CO) observed 1800 UTC 18 March 2019
Temperature: 20.0°C (68°F)
Dewpoint: 8.0°C (46°F) [RH = 46%]
Pressure (altimeter): 30.27 inches Hg (1025.1 mb)
Winds: from the SE (130 degrees) at 6 MPH (5 knots; 2.6 m/s)
Visibility: 6 or more miles (10+ km)
Ceiling: 2000 feet AGL
Clouds: broken clouds at 2000 feet AGL
Weather: no significant weather observed at this time

METAR text: SKBO 181700Z 10006KT 9999 BKN020 20/08 A3030
Conditions at: SKBO (BOGOTA/ELDORADO , CO) observed 1700 UTC 18 March 2019
Temperature: 20.0°C (68°F)
Dewpoint: 8.0°C (46°F) [RH = 46%]
Pressure (altimeter): 30.30 inches Hg (1026.2 mb)
Winds: from the E (100 degrees) at 7 MPH (6 knots; 3.1 m/s)
Visibility: 6 or more miles (10+ km)
Ceiling: 2000 feet AGL
Clouds: broken clouds at 2000 feet AGL
Weather: no significant weather observed at this time

METAR text: SKBO 181615Z 11006KT 9999 BKN020 21/09 A3032
Conditions at: SKBO (BOGOTA/ELDORADO , CO) observed 1615 UTC 18 March 2019
Temperature: 21.0°C (70°F)
Dewpoint: 9.0°C (48°F) [RH = 46%]
Pressure (altimeter): 30.32 inches Hg (1026.8 mb)
Winds: from the ESE (110 degrees) at 7 MPH (6 knots; 3.1 m/s)
Visibility: 6 or more miles (10+ km)
Ceiling: 2000 feet AGL
Clouds: broken clouds at 2000 feet AGL
Weather: no significant weather observed at this time

METAR text: SKBO 181600Z 09008KT 9999 BKN020 19/08 A3033
Conditions at: SKBO (BOGOTA/ELDORADO , CO) observed 1600 UTC 18 March 2019
Temperature: 19.0°C (66°F)
Dewpoint: 8.0°C (46°F) [RH = 49%]
Pressure (altimeter): 30.33 inches Hg (1027.2 mb)
Winds: from the E (90 degrees) at 9 MPH (8 knots; 4.1 m/s)
Visibility: 6 or more miles (10+ km)
Ceiling: 2000 feet AGL
Clouds: broken clouds at 2000 feet AGL
Weather: no significant weather observed at this time

METAR text: SKBO 181500Z 11009KT 9999 BKN020 19/09 A3034
Conditions at: SKBO (BOGOTA/ELDORADO , CO) observed 1500 UTC 18 March 2019
Temperature: 19.0°C (66°F)
Dewpoint: 9.0°C (48°F) [RH = 52%]
Pressure (altimeter): 30.34 inches Hg (1027.5 mb)
Winds: from the ESE (110 degrees) at 10 MPH (9 knots; 4.6 m/s)
Visibility: 6 or more miles (10+ km)
Ceiling: 2000 feet AGL
Clouds: broken clouds at 2000 feet AGL
Weather: no significant weather observed at this time

METAR text: SKBO 181400Z 12005KT 9999 SCT020 SCT200 18/09 A3035
Conditions at: SKBO (BOGOTA/ELDORADO , CO) observed 1400 UTC 18 March 2019
Temperature: 18.0°C (64°F)
Dewpoint: 9.0°C (48°F) [RH = 56%]
Pressure (altimeter): 30.35 inches Hg (1027.9 mb)
Winds: from the ESE (120 degrees) at 6 MPH (5 knots; 2.6 m/s)
Visibility: 6 or more miles (10+ km)
Ceiling: at least 12,000 feet AGL
Clouds: scattered clouds at 2000 feet AGL
scattered clouds at 20000 feet AGL
Weather: no significant weather observed at this time

METAR text: SKBO 181330Z 10005KT 9999 SCT020 SCT200 17/09 A3034
Conditions at: SKBO (BOGOTA/ELDORADO , CO) observed 1330 UTC 18 March 2019
Temperature: 17.0°C (63°F)
Dewpoint: 9.0°C (48°F) [RH = 59%]
Pressure (altimeter): 30.34 inches Hg (1027.5 mb)
Winds: from the E (100 degrees) at 6 MPH (5 knots; 2.6 m/s)
Visibility: 6 or more miles (10+ km)
Ceiling: at least 12,000 feet AGL
Clouds: scattered clouds at 2000 feet AGL
scattered clouds at 20000 feet AGL
Weather: no significant weather observed at this time

METAR text: SKBO 181300Z 06005KT 9999 SCT020 SCT200 15/11 A3033
Conditions at: SKBO (BOGOTA/ELDORADO , CO) observed 1300 UTC 18 March 2019
Temperature: 15.0°C (59°F)
Dewpoint: 11.0°C (52°F) [RH = 77%]
Pressure (altimeter): 30.33 inches Hg (1027.2 mb)
Winds: from the ENE (60 degrees) at 6 MPH (5 knots; 2.6 m/s)
Visibility: 6 or more miles (10+ km)
Ceiling: at least 12,000 feet AGL
Clouds: scattered clouds at 2000 feet AGL
scattered clouds at 20000 feet AGL
Weather: no significant weather observed at this time

METAR text: SKBO 181240Z 04005KT 9999 SCT020 SCT200 14/09 A3033
Conditions at: SKBO (BOGOTA/ELDORADO , CO) observed 1240 UTC 18 March 2019
Temperature: 14.0°C (57°F)
Dewpoint: 9.0°C (48°F) [RH = 72%]
Pressure (altimeter): 30.33 inches Hg (1027.2 mb)
Winds: from the NE (40 degrees) at 6 MPH (5 knots; 2.6 m/s)
Visibility: 6 or more miles (10+ km)
Ceiling: at least 12,000 feet AGL
Clouds: scattered clouds at 2000 feet AGL
scattered clouds at 20000 feet AGL
Weather: no significant weather observed at this time

METAR text: SKBO 181200Z 10003KT 9999 SCT020 SCT200 12/09 A3031
Conditions at: SKBO (BOGOTA/ELDORADO , CO) observed 1200 UTC 18 March 2019
Temperature: 12.0°C (54°F)
Dewpoint: 9.0°C (48°F) [RH = 82%]
Pressure (altimeter): 30.31 inches Hg (1026.5 mb)
Winds: from the E (100 degrees) at 3 MPH (3 knots; 1.5 m/s)
Visibility: 6 or more miles (10+ km)
Ceiling: at least 12,000 feet AGL
Clouds: scattered clouds at 2000 feet AGL
scattered clouds at 20000 feet AGL
Weather: no significant weather observed at this time

METAR text: SKBO 181100Z 05008KT 9999 FEW023 11/08 A3028
Conditions at: SKBO (BOGOTA/ELDORADO , CO) observed 1100 UTC 18 March 2019
Temperature: 11.0°C (52°F)
Dewpoint: 8.0°C (46°F) [RH = 82%]
Pressure (altimeter): 30.28 inches Hg (1025.5 mb)
Winds: from the NE (50 degrees) at 9 MPH (8 knots; 4.1 m/s)
Visibility: 6 or more miles (10+ km)
Ceiling: at least 12,000 feet AGL
Clouds: few clouds at 2300 feet AGL
Weather: no significant weather observed at this time

METAR text: SKBO 181030Z 05008KT 9999 FEW023 SCT080 11/09 A3029
Conditions at: SKBO (BOGOTA/ELDORADO , CO) observed 1030 UTC 18 March 2019
Temperature: 11.0°C (52°F)
Dewpoint: 9.0°C (48°F) [RH = 87%]
Pressure (altimeter): 30.29 inches Hg (1025.8 mb)
Winds: from the NE (50 degrees) at 9 MPH (8 knots; 4.1 m/s)
Visibility: 6 or more miles (10+ km)
Ceiling: at least 12,000 feet AGL
Clouds: few clouds at 2300 feet AGL
scattered clouds at 8000 feet AGL
Weather: no significant weather observed at this time

METAR text: SKBO 181000Z 05007KT 9999 FEW023 SCT070 12/09 A3026
Conditions at: SKBO (BOGOTA/ELDORADO , CO) observed 1000 UTC 18 March 2019
Temperature: 12.0°C (54°F)
Dewpoint: 9.0°C (48°F) [RH = 82%]
Pressure (altimeter): 30.26 inches Hg (1024.8 mb)
Winds: from the NE (50 degrees) at 8 MPH (7 knots; 3.6 m/s)
Visibility: 6 or more miles (10+ km)
Ceiling: at least 12,000 feet AGL
Clouds: few clouds at 2300 feet AGL
scattered clouds at 7000 feet AGL
Weather: no significant weather observed at this time

METAR text: SKBO 180900Z 06010KT 9999 FEW023 12/09 A3026
Conditions at: SKBO (BOGOTA/ELDORADO , CO) observed 0900 UTC 18 March 2019
Temperature: 12.0°C (54°F)
Dewpoint: 9.0°C (48°F) [RH = 82%]
Pressure (altimeter): 30.26 inches Hg (1024.8 mb)
Winds: from the ENE (60 degrees) at 12 MPH (10 knots; 5.1 m/s)
Visibility: 6 or more miles (10+ km)
Ceiling: at least 12,000 feet AGL
Clouds: few clouds at 2300 feet AGL
Weather: no significant weather observed at this time

METAR text: SKBO 180800Z 05004KT 9999 BKN017 BKN060 13/09 A3028
Conditions at: SKBO (BOGOTA/ELDORADO , CO) observed 0800 UTC 18 March 2019
Temperature: 13.0°C (55°F)
Dewpoint: 9.0°C (48°F) [RH = 77%]
Pressure (altimeter): 30.28 inches Hg (1025.5 mb)
Winds: from the NE (50 degrees) at 5 MPH (4 knots; 2.1 m/s)
Visibility: 6 or more miles (10+ km)
Ceiling: 1700 feet AGL
Clouds: broken clouds at 1700 feet AGL
broken clouds at 6000 feet AGL
Weather: no significant weather observed at this time

METAR text: SKBO 180700Z 04006KT 9999 SCT020 BKN070 13/09 A3029
Conditions at: SKBO (BOGOTA/ELDORADO , CO) observed 0700 UTC 18 March 2019
Temperature: 13.0°C (55°F)
Dewpoint: 9.0°C (48°F) [RH = 77%]
Pressure (altimeter): 30.29 inches Hg (1025.8 mb)
Winds: from the NE (40 degrees) at 7 MPH (6 knots; 3.1 m/s)
Visibility: 6 or more miles (10+ km)
Ceiling: 7000 feet AGL
Clouds: scattered clouds at 2000 feet AGL
broken clouds at 7000 feet AGL
Weather: no significant weather observed at this time

METAR text: SKBO 180600Z 03006KT 9999 FEW017 BKN070 12/09 A3031
Conditions at: SKBO (BOGOTA/ELDORADO , CO) observed 0600 UTC 18 March 2019
Temperature: 12.0°C (54°F)
Dewpoint: 9.0°C (48°F) [RH = 82%]
Pressure (altimeter): 30.31 inches Hg (1026.5 mb)
Winds: from the NNE (30 degrees) at 7 MPH (6 knots; 3.1 m/s)
Visibility: 6 or more miles (10+ km)
Ceiling: 7000 feet AGL
Clouds: few clouds at 1700 feet AGL
broken clouds at 7000 feet AGL
Weather: no significant weather observed at this time

METAR text: SKBO 180500Z 05008KT 9999 FEW020 SCT070 12/10 A3033
Conditions at: SKBO (BOGOTA/ELDORADO , CO) observed 0500 UTC 18 March 2019
Temperature: 12.0°C (54°F)
Dewpoint: 10.0°C (50°F) [RH = 88%]
Pressure (altimeter): 30.33 inches Hg (1027.2 mb)
Winds: from the NE (50 degrees) at 9 MPH (8 knots; 4.1 m/s)
Visibility: 6 or more miles (10+ km)
Ceiling: at least 12,000 feet AGL
Clouds: few clouds at 2000 feet AGL
scattered clouds at 7000 feet AGL
Weather: no significant weather observed at this time

METAR text: SKBO 180400Z 03006KT 9999 FEW020 BKN070 12/09 A3035
Conditions at: SKBO (BOGOTA/ELDORADO , CO) observed 0400 UTC 18 March 2019
Temperature: 12.0°C (54°F)
Dewpoint: 9.0°C (48°F) [RH = 82%]
Pressure (altimeter): 30.35 inches Hg (1027.9 mb)
Winds: from the NNE (30 degrees) at 7 MPH (6 knots; 3.1 m/s)
Visibility: 6 or more miles (10+ km)
Ceiling: 7000 feet AGL
Clouds: few clouds at 2000 feet AGL
broken clouds at 7000 feet AGL
Weather: no significant weather observed at this time

METAR text: SKBO 180300Z 04005KT 9999 FEW020 BKN070 13/09 A3034
Conditions at: SKBO (BOGOTA/ELDORADO , CO) observed 0300 UTC 18 March 2019
Temperature: 13.0°C (55°F)
Dewpoint: 9.0°C (48°F) [RH = 77%]
Pressure (altimeter): 30.34 inches Hg (1027.5 mb)
Winds: from the NE (40 degrees) at 6 MPH (5 knots; 2.6 m/s)
Visibility: 6 or more miles (10+ km)
Ceiling: 7000 feet AGL
Clouds: few clouds at 2000 feet AGL
broken clouds at 7000 feet AGL
Weather: no significant weather observed at this time

METAR text: SKBO 180200Z 10004KT 9999 FEW023 SCT060 13/09 A3032
Conditions at: SKBO (BOGOTA/ELDORADO , CO) observed 0200 UTC 18 March 2019
Temperature: 13.0°C (55°F)
Dewpoint: 9.0°C (48°F) [RH = 77%]
Pressure (altimeter): 30.32 inches Hg (1026.8 mb)
Winds: from the E (100 degrees) at 5 MPH (4 knots; 2.1 m/s)
Visibility: 6 or more miles (10+ km)
Ceiling: at least 12,000 feet AGL
Clouds: few clouds at 2300 feet AGL
scattered clouds at 6000 feet AGL
Weather: no significant weather observed at this time

METAR text: SKBO 180100Z 03005KT 9999 FEW023 13/09 A3027
Conditions at: SKBO (BOGOTA/ELDORADO , CO) observed 0100 UTC 18 March 2019
Temperature: 13.0°C (55°F)
Dewpoint: 9.0°C (48°F) [RH = 77%]
Pressure (altimeter): 30.27 inches Hg (1025.1 mb)
Winds: from the NNE (30 degrees) at 6 MPH (5 knots; 2.6 m/s)
Visibility: 6 or more miles (10+ km)
Ceiling: at least 12,000 feet AGL
Clouds: few clouds at 2300 feet AGL
Weather: no significant weather observed at this time

METAR text: SKBO 180000Z 12005KT 9999 FEW017 15/10 A3024
Conditions at: SKBO (BOGOTA/ELDORADO , CO) observed 0000 UTC 18 March 2019
Temperature: 15.0°C (59°F)
Dewpoint: 10.0°C (50°F) [RH = 72%]
Pressure (altimeter): 30.24 inches Hg (1024.1 mb)
Winds: from the ESE (120 degrees) at 6 MPH (5 knots; 2.6 m/s)
Visibility: 6 or more miles (10+ km)
Ceiling: at least 12,000 feet AGL
Clouds: few clouds at 1700 feet AGL
Weather: no significant weather observed at this time

METAR text: SKBO 172300Z 12007KT 9999 FEW020 SCT200 18/09 A3022
Conditions at: SKBO (BOGOTA/ELDORADO , CO) observed 2300 UTC 17 March 2019
Temperature: 18.0°C (64°F)
Dewpoint: 9.0°C (48°F) [RH = 56%]
Pressure (altimeter): 30.22 inches Hg (1023.5 mb)
Winds: from the ESE (120 degrees) at 8 MPH (7 knots; 3.6 m/s)
Visibility: 6 or more miles (10+ km)
Ceiling: at least 12,000 feet AGL
Clouds: few clouds at 2000 feet AGL
scattered clouds at 20000 feet AGL
Weather: no significant weather observed at this time

METAR text: SKBO 172200Z 13006KT 9999 FEW023 SCT200 20/08 A3020
Conditions at: SKBO (BOGOTA/ELDORADO , CO) observed 2200 UTC 17 March 2019
Temperature: 20.0°C (68°F)
Dewpoint: 8.0°C (46°F) [RH = 46%]
Pressure (altimeter): 30.20 inches Hg (1022.8 mb)
Winds: from the SE (130 degrees) at 7 MPH (6 knots; 3.1 m/s)
Visibility: 6 or more miles (10+ km)
Ceiling: at least 12,000 feet AGL
Clouds: few clouds at 2300 feet AGL
scattered clouds at 20000 feet AGL
Weather: no significant weather observed at this time

METAR text: SKBO 172100Z 15007KT 9999 SCT023 SCT070 19/08 A3021
Conditions at: SKBO (BOGOTA/ELDORADO , CO) observed 2100 UTC 17 March 2019
Temperature: 19.0°C (66°F)
Dewpoint: 8.0°C (46°F) [RH = 49%]
Pressure (altimeter): 30.21 inches Hg (1023.1 mb)
Winds: from the SSE (150 degrees) at 8 MPH (7 knots; 3.6 m/s)
Visibility: 6 or more miles (10+ km)
Ceiling: at least 12,000 feet AGL
Clouds: scattered clouds at 2300 feet AGL
scattered clouds at 7000 feet AGL
Weather: no significant weather observed at this time

METAR text: SKBO 172000Z 10008KT 9999 BKN023 SCT070 19/08 A3023
Conditions at: SKBO (BOGOTA/ELDORADO , CO) observed 2000 UTC 17 March 2019
Temperature: 19.0°C (66°F)
Dewpoint: 8.0°C (46°F) [RH = 49%]
Pressure (altimeter): 30.23 inches Hg (1023.8 mb)
Winds: from the E (100 degrees) at 9 MPH (8 knots; 4.1 m/s)
Visibility: 6 or more miles (10+ km)
Ceiling: 2300 feet AGL
Clouds: broken clouds at 2300 feet AGL
scattered clouds at 7000 feet AGL
Weather: no significant weather observed at this time

METAR text: SKBO 171900Z 12006KT 9999 BKN023 SCT070 20/08 A3025
Conditions at: SKBO (BOGOTA/ELDORADO , CO) observed 1900 UTC 17 March 2019
Temperature: 20.0°C (68°F)
Dewpoint: 8.0°C (46°F) [RH = 46%]
Pressure (altimeter): 30.25 inches Hg (1024.5 mb)
Winds: from the ESE (120 degrees) at 7 MPH (6 knots; 3.1 m/s)
Visibility: 6 or more miles (10+ km)
Ceiling: 2300 feet AGL
Clouds: broken clouds at 2300 feet AGL
scattered clouds at 7000 feet AGL
Weather: no significant weather observed at this time

Forecast for: SKBO (BOGOTA/ELDORADO , CO)
Text: TAF SKBO 190500Z 1906/2006 VRB04KT 9999 SCT014 BKN070
Forecast period: 0600 to 1500 UTC 19 March 2019
Forecast type: FROM: standard forecast or significant change
Winds: variable direction winds at 5 MPH (4 knots; 2.1 m/s)
Visibility: 6 or more miles 10+ km)
Ceiling: 7000 feet AGL
Clouds: scattered clouds at 1400 feet AGL
broken clouds at 7000 feet AGL
Weather: no significant weather forecast for this period
Text: TEMPO 1907/1912 6000 DZRA
Forecast period: 0700 to 1200 UTC 19 March 2019
Forecast type: TEMPORARY: The following changes expected for less than half the time period
Visibility: 4 miles (6 km)
Ceiling: unknown
Clouds: missing
Weather: DZ RA  (moderate drizzle, moderate rain)
Text: BECMG 1915/1917 29012KT
Forecast period: 1500 UTC 19 March 2019 to 0600 UTC 20 March 2019
Forecast type: BECOMING: Conditions expected to become as follows by 1700 UTC 19 March 2019
Winds: from the WNW (290 degrees) at 14 MPH (12 knots; 6.2 m/s)
Visibility: 6 or more miles 10+ km)
Ceiling: 7000 feet AGL
Clouds: scattered clouds at 1400 feet AGL
broken clouds at 7000 feet AGL
Weather: no significant weather forecast for this period
Text: TEMPO 1919/1923 4000 TSRA SCT015CB SCT017 TX21/1918Z TN10/1911Z
Forecast period: 1900 to 2300 UTC 19 March 2019
Forecast type: TEMPORARY: The following changes expected for less than half the time period
Visibility: 2.49 miles (4.01 km)
Ceiling: at least 12,000 feet AGL
Clouds: scattered clouds at 1500 feet AGL
scattered clouds at 1700 feet AGL
Weather: TSRA  (rain associated with thunderstorm(s))